sensor_id;sensor_type;location;lat;lon;timestamp;P1;durP1;ratioP1;P2;durP2;ratioP2
9264;SDS011;4669;49.594;10.958;2023-08-31T04:26:20;4.78;;;3.53;;
9264;SDS011;4669;49.594;10.958;2023-08-31T04:31:24;4.38;;;3.55;;
9264;SDS011;4669;49.594;10.958;2023-08-31T04:36:25;4.55;;;3.90;;
9264;SDS011;4669;49.594;10.958;2023-08-31T04:41:29;5.43;;;3.42;;
9264;SDS011;4669;49.594;10.958;2023-08-31T04:46:30;6.72;;;4.18;;
9264;SDS011;4669;49.594;10.958;2023-08-31T04:51:34;5.35;;;3.67;;
9264;SDS011;4669;49.594;10.958;2023-08-31T04:56:40;4.15;;;3.45;;
9264;SDS011;4669;49.594;10.958;2023-08-31T05:01:42;4.10;;;3.72;;
9264;SDS011;4669;49.594;10.958;2023-08-31T05:06:44;5.10;;;3.83;;
9264;SDS011;4669;49.594;10.958;2023-08-31T05:11:47;5.18;;;4.25;;
9264;SDS011;4669;49.594;10.958;2023-08-31T05:16:49;5.35;;;4.40;;
9264;SDS011;4669;49.594;10.958;2023-08-31T05:21:51;7.32;;;4.25;;
9264;SDS011;4669;49.594;10.958;2023-08-31T05:26:54;6.50;;;4.05;;
9264;SDS011;4669;49.594;10.958;2023-08-31T05:31:56;7.43;;;4.07;;
9264;SDS011;4669;49.594;10.958;2023-08-31T05:36:58;8.40;;;5.50;;
9264;SDS011;4669;49.594;10.958;2023-08-31T05:42:01;5.25;;;4.85;;
9264;SDS011;4669;49.594;10.958;2023-08-31T05:47:03;9.13;;;5.10;;
9264;SDS011;4669;49.594;10.958;2023-08-31T05:52:05;6.82;;;5.47;;
9264;SDS011;4669;49.594;10.958;2023-08-31T05:57:09;14.50;;;11.88;;
9264;SDS011;4669;49.594;10.958;2023-08-31T06:02:11;9.38;;;7.32;;
9264;SDS011;4669;49.594;10.958;2023-08-31T06:07:12;8.98;;;7.10;;
9264;SDS011;4669;49.594;10.958;2023-08-31T06:12:16;10.65;;;7.47;;
9264;SDS011;4669;49.594;10.958;2023-08-31T06:17:17;7.82;;;7.03;;
9264;SDS011;4669;49.594;10.958;2023-08-31T06:22:19;9.77;;;8.00;;
9264;SDS011;4669;49.594;10.958;2023-08-31T06:27:24;12.43;;;8.27;;
9264;SDS011;4669;49.594;10.958;2023-08-31T06:32:26;8.65;;;7.47;;
9264;SDS011;4669;49.594;10.958;2023-08-31T06:37:28;11.35;;;7.50;;
9264;SDS011;4669;49.594;10.958;2023-08-31T06:42:31;9.18;;;8.00;;
9264;SDS011;4669;49.594;10.958;2023-08-31T06:47:33;10.82;;;8.55;;
9264;SDS011;4669;49.594;10.958;2023-08-31T06:52:35;9.50;;;7.72;;
9264;SDS011;4669;49.594;10.958;2023-08-31T06:57:38;9.07;;;7.13;;
9264;SDS011;4669;49.594;10.958;2023-08-31T07:02:40;10.30;;;6.40;;
9264;SDS011;4669;49.594;10.958;2023-08-31T07:07:42;12.73;;;6.97;;
9264;SDS011;4669;49.594;10.958;2023-08-31T07:12:45;7.25;;;6.45;;
9264;SDS011;4669;49.594;10.958;2023-08-31T07:17:47;8.50;;;6.30;;
9264;SDS011;4669;49.594;10.958;2023-08-31T07:22:49;6.75;;;5.32;;
9264;SDS011;4669;49.594;10.958;2023-08-31T07:27:52;6.53;;;5.35;;
9264;SDS011;4669;49.594;10.958;2023-08-31T07:32:54;6.82;;;4.40;;
9264;SDS011;4669;49.594;10.958;2023-08-31T07:37:55;6.30;;;4.63;;
9264;SDS011;4669;49.594;10.958;2023-08-31T07:42:58;9.30;;;3.97;;
9264;SDS011;4669;49.594;10.958;2023-08-31T07:48:00;7.15;;;3.95;;
9264;SDS011;4669;49.594;10.958;2023-08-31T07:53:03;4.70;;;3.35;;
9264;SDS011;4669;49.594;10.958;2023-08-31T07:58:07;8.85;;;3.25;;
9264;SDS011;4669;49.594;10.958;2023-08-31T08:03:08;6.30;;;2.78;;
9264;SDS011;4669;49.594;10.958;2023-08-31T08:08:11;7.30;;;2.92;;
9264;SDS011;4669;49.594;10.958;2023-08-31T08:13:14;6.47;;;3.15;;
9264;SDS011;4669;49.594;10.958;2023-08-31T08:18:16;3.53;;;2.33;;
9264;SDS011;4669;49.594;10.958;2023-08-31T08:23:18;11.70;;;3.40;;
9264;SDS011;4669;49.594;10.958;2023-08-31T08:28:23;5.18;;;2.65;;
9264;SDS011;4669;49.594;10.958;2023-08-31T08:33:25;4.93;;;2.15;;
9264;SDS011;4669;49.594;10.958;2023-08-31T08:38:27;6.43;;;2.22;;
9264;SDS011;4669;49.594;10.958;2023-08-31T08:43:30;4.25;;;2.17;;
9264;SDS011;4669;49.594;10.958;2023-08-31T08:48:34;3.83;;;1.73;;
9264;SDS011;4669;49.594;10.958;2023-08-31T08:53:37;5.13;;;2.45;;
9264;SDS011;4669;49.594;10.958;2023-08-31T08:58:42;5.30;;;2.28;;
9264;SDS011;4669;49.594;10.958;2023-08-31T09:03:44;8.38;;;2.20;;
9264;SDS011;4669;49.594;10.958;2023-08-31T09:08:52;3.90;;;2.17;;
9264;SDS011;4669;49.594;10.958;2023-08-31T09:13:57;2.15;;;1.70;;
9264;SDS011;4669;49.594;10.958;2023-08-31T09:18:59;3.33;;;2.28;;
9264;SDS011;4669;49.594;10.958;2023-08-31T09:24:01;3.40;;;1.90;;
9264;SDS011;4669;49.594;10.958;2023-08-31T09:29:05;2.95;;;1.65;;
9264;SDS011;4669;49.594;10.958;2023-08-31T09:34:07;2.50;;;1.90;;
9264;SDS011;4669;49.594;10.958;2023-08-31T09:39:09;4.95;;;2.00;;
9264;SDS011;4669;49.594;10.958;2023-08-31T09:44:16;3.13;;;1.92;;
9264;SDS011;4669;49.594;10.958;2023-08-31T09:49:19;2.28;;;1.60;;
9264;SDS011;4669;49.594;10.958;2023-08-31T09:54:22;4.25;;;2.60;;
9264;SDS011;4669;49.594;10.958;2023-08-31T09:59:27;2.00;;;1.80;;
9264;SDS011;4669;49.594;10.958;2023-08-31T10:04:29;5.05;;;2.10;;
9264;SDS011;4669;49.594;10.958;2023-08-31T10:09:33;3.72;;;2.00;;
9264;SDS011;4669;49.594;10.958;2023-08-31T10:14:38;6.68;;;4.18;;
9264;SDS011;4669;49.594;10.958;2023-08-31T10:19:40;5.85;;;3.42;;
9264;SDS011;4669;49.594;10.958;2023-08-31T10:24:56;9.65;;;5.40;;
9264;SDS011;4669;49.594;10.958;2023-08-31T10:30:00;4.07;;;2.60;;
9264;SDS011;4669;49.594;10.958;2023-08-31T10:35:14;1.98;;;1.77;;
9264;SDS011;4669;49.594;10.958;2023-08-31T10:40:16;4.57;;;2.40;;
9264;SDS011;4669;49.594;10.958;2023-08-31T10:45:20;4.07;;;2.33;;
9264;SDS011;4669;49.594;10.958;2023-08-31T10:50:22;5.40;;;2.25;;
9264;SDS011;4669;49.594;10.958;2023-08-31T10:55:26;3.10;;;2.10;;
9264;SDS011;4669;49.594;10.958;2023-08-31T11:00:47;3.88;;;2.70;;
9264;SDS011;4669;49.594;10.958;2023-08-31T11:05:52;4.25;;;2.30;;
9264;SDS011;4669;49.594;10.958;2023-08-31T11:10:54;3.58;;;2.53;;
9264;SDS011;4669;49.594;10.958;2023-08-31T11:15:57;5.20;;;2.13;;
9264;SDS011;4669;49.594;10.958;2023-08-31T11:21:00;4.43;;;2.40;;
9264;SDS011;4669;49.594;10.958;2023-08-31T11:26:05;6.38;;;2.47;;
9264;SDS011;4669;49.594;10.958;2023-08-31T11:31:09;4.88;;;2.50;;
9264;SDS011;4669;49.594;10.958;2023-08-31T11:36:11;3.63;;;2.20;;
9264;SDS011;4669;49.594;10.958;2023-08-31T11:41:17;4.30;;;2.53;;
9264;SDS011;4669;49.594;10.958;2023-08-31T11:46:20;3.72;;;1.77;;
9264;SDS011;4669;49.594;10.958;2023-08-31T11:51:23;3.92;;;2.35;;
9264;SDS011;4669;49.594;10.958;2023-08-31T11:56:25;3.88;;;2.08;;
9264;SDS011;4669;49.594;10.958;2023-08-31T12:01:28;5.38;;;2.17;;
9264;SDS011;4669;49.594;10.958;2023-08-31T12:06:30;4.93;;;2.22;;
9264;SDS011;4669;49.594;10.958;2023-08-31T12:11:32;3.58;;;2.00;;
9264;SDS011;4669;49.594;10.958;2023-08-31T12:16:35;3.55;;;2.13;;
9264;SDS011;4669;49.594;10.958;2023-08-31T12:21:37;3.78;;;2.20;;
9264;SDS011;4669;49.594;10.958;2023-08-31T12:26:40;4.20;;;1.92;;
9264;SDS011;4669;49.594;10.958;2023-08-31T12:31:43;2.38;;;1.90;;
9264;SDS011;4669;49.594;10.958;2023-08-31T12:36:45;4.82;;;2.15;;
9264;SDS011;4669;49.594;10.958;2023-08-31T12:41:47;3.65;;;1.95;;
9264;SDS011;4669;49.594;10.958;2023-08-31T12:46:51;2.70;;;1.90;;
9264;SDS011;4669;49.594;10.958;2023-08-31T12:51:53;7.13;;;2.25;;
9264;SDS011;4669;49.594;10.958;2023-08-31T12:56:54;3.63;;;1.95;;
9264;SDS011;4669;49.594;10.958;2023-08-31T13:01:58;6.80;;;3.20;;
9264;SDS011;4669;49.594;10.958;2023-08-31T13:07:00;2.97;;;1.92;;
9264;SDS011;4669;49.594;10.958;2023-08-31T13:12:02;2.95;;;2.10;;
9264;SDS011;4669;49.594;10.958;2023-08-31T13:17:05;3.08;;;2.08;;
9264;SDS011;4669;49.594;10.958;2023-08-31T13:22:07;7.68;;;2.75;;
9264;SDS011;4669;49.594;10.958;2023-08-31T13:27:15;3.20;;;1.80;;
9264;SDS011;4669;49.594;10.958;2023-08-31T13:32:18;6.03;;;1.92;;
9264;SDS011;4669;49.594;10.958;2023-08-31T13:37:20;3.03;;;1.90;;
9264;SDS011;4669;49.594;10.958;2023-08-31T13:42:23;4.53;;;1.60;;
9264;SDS011;4669;49.594;10.958;2023-08-31T13:47:26;5.22;;;2.20;;
9264;SDS011;4669;49.594;10.958;2023-08-31T13:52:28;4.32;;;1.95;;
9264;SDS011;4669;49.594;10.958;2023-08-31T13:57:30;5.05;;;1.85;;
9264;SDS011;4669;49.594;10.958;2023-08-31T14:02:33;4.07;;;1.67;;
9264;SDS011;4669;49.594;10.958;2023-08-31T14:07:35;4.03;;;1.92;;
9264;SDS011;4669;49.594;10.958;2023-08-31T14:12:37;5.28;;;2.00;;
9264;SDS011;4669;49.594;10.958;2023-08-31T14:17:40;1.42;;;1.30;;
9264;SDS011;4669;49.594;10.958;2023-08-31T14:22:42;3.50;;;1.60;;
9264;SDS011;4669;49.594;10.958;2023-08-31T14:27:46;5.38;;;1.73;;
9264;SDS011;4669;49.594;10.958;2023-08-31T14:32:49;4.97;;;2.55;;
9264;SDS011;4669;49.594;10.958;2023-08-31T14:37:51;2.38;;;1.48;;
9264;SDS011;4669;49.594;10.958;2023-08-31T14:42:53;3.35;;;1.73;;
9264;SDS011;4669;49.594;10.958;2023-08-31T14:47:56;2.58;;;1.90;;
9264;SDS011;4669;49.594;10.958;2023-08-31T14:52:58;7.22;;;1.83;;
9264;SDS011;4669;49.594;10.958;2023-08-31T14:58:00;4.18;;;1.80;;
9264;SDS011;4669;49.594;10.958;2023-08-31T15:03:04;6.38;;;2.10;;
9264;SDS011;4669;49.594;10.958;2023-08-31T15:08:06;4.32;;;1.75;;
9264;SDS011;4669;49.594;10.958;2023-08-31T15:13:08;3.33;;;1.90;;
9264;SDS011;4669;49.594;10.958;2023-08-31T15:18:12;2.80;;;1.75;;
9264;SDS011;4669;49.594;10.958;2023-08-31T15:23:13;2.75;;;1.77;;
9264;SDS011;4669;49.594;10.958;2023-08-31T15:28:15;3.88;;;1.85;;
9264;SDS011;4669;49.594;10.958;2023-08-31T15:33:18;5.18;;;2.15;;
9264;SDS011;4669;49.594;10.958;2023-08-31T15:38:20;3.22;;;2.05;;
9264;SDS011;4669;49.594;10.958;2023-08-31T15:43:22;6.22;;;1.95;;
9264;SDS011;4669;49.594;10.958;2023-08-31T15:48:25;7.95;;;2.40;;
9264;SDS011;4669;49.594;10.958;2023-08-31T15:53:28;5.95;;;2.22;;
9264;SDS011;4669;49.594;10.958;2023-08-31T15:58:30;4.35;;;2.10;;
9264;SDS011;4669;49.594;10.958;2023-08-31T16:03:34;3.50;;;1.90;;
9264;SDS011;4669;49.594;10.958;2023-08-31T16:08:36;4.22;;;2.15;;
9264;SDS011;4669;49.594;10.958;2023-08-31T16:13:38;2.97;;;1.80;;
9264;SDS011;4669;49.594;10.958;2023-08-31T16:18:41;3.65;;;2.17;;
9264;SDS011;4669;49.594;10.958;2023-08-31T16:23:43;4.30;;;1.98;;
9264;SDS011;4669;49.594;10.958;2023-08-31T16:28:45;4.18;;;2.50;;
9264;SDS011;4669;49.594;10.958;2023-08-31T16:33:49;5.20;;;2.17;;
9264;SDS011;4669;49.594;10.958;2023-08-31T16:38:50;7.57;;;3.03;;
9264;SDS011;4669;49.594;10.958;2023-08-31T16:43:52;5.22;;;2.35;;
9264;SDS011;4669;49.594;10.958;2023-08-31T16:48:57;6.10;;;2.35;;
9264;SDS011;4669;49.594;10.958;2023-08-31T16:53:59;5.00;;;2.10;;
9264;SDS011;4669;49.594;10.958;2023-08-31T16:59:00;3.33;;;2.13;;
9264;SDS011;4669;49.594;10.958;2023-08-31T17:04:04;3.33;;;2.42;;
9264;SDS011;4669;49.594;10.958;2023-08-31T17:09:06;6.75;;;3.13;;
9264;SDS011;4669;49.594;10.958;2023-08-31T17:14:08;4.13;;;2.28;;
9264;SDS011;4669;49.594;10.958;2023-08-31T17:19:12;6.03;;;2.38;;
9264;SDS011;4669;49.594;10.958;2023-08-31T17:24:14;4.82;;;2.63;;
9264;SDS011;4669;49.594;10.958;2023-08-31T17:29:16;7.10;;;2.33;;
9264;SDS011;4669;49.594;10.958;2023-08-31T17:34:20;6.80;;;2.25;;
9264;SDS011;4669;49.594;10.958;2023-08-31T17:39:22;4.68;;;2.38;;
9264;SDS011;4669;49.594;10.958;2023-08-31T17:44:24;3.45;;;2.25;;
9264;SDS011;4669;49.594;10.958;2023-08-31T17:49:27;11.93;;;7.18;;
9264;SDS011;4669;49.594;10.958;2023-08-31T17:54:29;7.40;;;3.05;;
9264;SDS011;4669;49.594;10.958;2023-08-31T17:59:31;7.38;;;2.60;;
9264;SDS011;4669;49.594;10.958;2023-08-31T18:04:36;7.00;;;2.45;;
9264;SDS011;4669;49.594;10.958;2023-08-31T18:09:38;4.65;;;2.28;;
9264;SDS011;4669;49.594;10.958;2023-08-31T18:14:41;4.13;;;2.40;;
9264;SDS011;4669;49.594;10.958;2023-08-31T18:19:46;6.78;;;2.60;;
9264;SDS011;4669;49.594;10.958;2023-08-31T18:24:48;6.80;;;2.85;;
9264;SDS011;4669;49.594;10.958;2023-08-31T18:29:49;6.07;;;2.92;;
9264;SDS011;4669;49.594;10.958;2023-08-31T18:34:53;5.38;;;3.10;;
9264;SDS011;4669;49.594;10.958;2023-08-31T18:39:55;7.35;;;4.82;;
9264;SDS011;4669;49.594;10.958;2023-08-31T18:44:57;5.97;;;3.00;;
9264;SDS011;4669;49.594;10.958;2023-08-31T18:50:00;8.25;;;3.03;;
9264;SDS011;4669;49.594;10.958;2023-08-31T18:55:02;4.20;;;2.45;;
9264;SDS011;4669;49.594;10.958;2023-08-31T19:00:05;7.10;;;2.50;;
9264;SDS011;4669;49.594;10.958;2023-08-31T19:05:10;10.23;;;3.20;;
9264;SDS011;4669;49.594;10.958;2023-08-31T19:10:13;7.85;;;4.07;;
9264;SDS011;4669;49.594;10.958;2023-08-31T19:15:16;6.22;;;2.78;;
9264;SDS011;4669;49.594;10.958;2023-08-31T19:20:19;8.52;;;2.40;;
9264;SDS011;4669;49.594;10.958;2023-08-31T19:25:21;6.40;;;2.53;;
9264;SDS011;4669;49.594;10.958;2023-08-31T19:30:29;3.90;;;2.60;;
9264;SDS011;4669;49.594;10.958;2023-08-31T19:35:33;3.72;;;2.75;;
9264;SDS011;4669;49.594;10.958;2023-08-31T19:40:34;4.88;;;3.05;;
9264;SDS011;4669;49.594;10.958;2023-08-31T19:45:36;5.35;;;3.33;;
9264;SDS011;4669;49.594;10.958;2023-08-31T19:50:39;5.95;;;3.58;;
9264;SDS011;4669;49.594;10.958;2023-08-31T19:55:41;7.55;;;3.72;;
9264;SDS011;4669;49.594;10.958;2023-08-31T20:00:43;10.23;;;3.65;;
9264;SDS011;4669;49.594;10.958;2023-08-31T20:05:46;11.15;;;3.00;;
9264;SDS011;4669;49.594;10.958;2023-08-31T20:10:48;5.20;;;2.85;;
9264;SDS011;4669;49.594;10.958;2023-08-31T20:15:50;6.13;;;2.83;;
9264;SDS011;4669;49.594;10.958;2023-08-31T20:20:53;3.97;;;2.30;;
9264;SDS011;4669;49.594;10.958;2023-08-31T20:25:55;6.30;;;3.45;;
9264;SDS011;4669;49.594;10.958;2023-08-31T20:30:57;4.75;;;2.70;;
9264;SDS011;4669;49.594;10.958;2023-08-31T20:36:08;7.28;;;3.20;;
9264;SDS011;4669;49.594;10.958;2023-08-31T20:41:14;8.98;;;2.92;;
9264;SDS011;4669;49.594;10.958;2023-08-31T20:46:16;12.77;;;2.90;;
9264;SDS011;4669;49.594;10.958;2023-08-31T20:51:19;6.20;;;2.30;;
9264;SDS011;4669;49.594;10.958;2023-08-31T20:56:21;8.55;;;2.70;;
9264;SDS011;4669;49.594;10.958;2023-08-31T21:01:24;5.68;;;2.92;;
9264;SDS011;4669;49.594;10.958;2023-08-31T21:06:28;7.35;;;2.58;;
9264;SDS011;4669;49.594;10.958;2023-08-31T21:11:30;5.68;;;2.67;;
9264;SDS011;4669;49.594;10.958;2023-08-31T21:16:32;7.35;;;3.05;;
9264;SDS011;4669;49.594;10.958;2023-08-31T21:21:35;7.85;;;2.47;;
9264;SDS011;4669;49.594;10.958;2023-08-31T21:26:37;7.78;;;2.60;;
9264;SDS011;4669;49.594;10.958;2023-08-31T21:31:39;3.95;;;2.60;;
9264;SDS011;4669;49.594;10.958;2023-08-31T21:36:42;5.90;;;2.75;;
9264;SDS011;4669;49.594;10.958;2023-08-31T21:41:44;4.45;;;2.70;;
9264;SDS011;4669;49.594;10.958;2023-08-31T21:46:45;5.45;;;2.40;;
9264;SDS011;4669;49.594;10.958;2023-08-31T21:51:49;7.63;;;2.72;;
9264;SDS011;4669;49.594;10.958;2023-08-31T21:56:50;5.85;;;2.33;;
